Time;durP1;ratioP1;P1;durP2;ratioP2;P2;SDS_P1;SDS_P2;PMS_P1;PMS_P2;Temp;Humidity;BMP_temperature;BMP_pressure;BME280_temperature;BME280_humidity;BME280_pressure;Samples;Min_cycle;Max_cycle;Signal;HPM_P1;HPM_P2
2022/09/25 00:01:36;;;;;;;13.90;9.87;;;13.10;99.90;;;;;;5099841;28;20447;-81
2022/09/25 00:04:04;;;;;;;15.70;10.77;;;13.10;99.90;;;;;;5099889;28;20556;-82
2022/09/25 00:06:32;;;;;;;16.40;10.97;;;13.10;99.90;;;;;;5101826;28;20517;-82
2022/09/25 00:09:01;;;;;;;18.23;10.40;;;13.10;99.90;;;;;;5099936;28;20448;-82
2022/09/25 00:11:31;;;;;;;12.83;10.87;;;13.10;99.90;;;;;;5099254;28;20799;-81
2022/09/25 00:14:02;;;;;;;15.00;10.10;;;13.20;99.90;;;;;;5099291;28;20500;-81
2022/09/25 00:16:31;;;;;;;14.73;9.50;;;13.20;99.90;;;;;;5098705;28;20440;-82
2022/09/25 00:21:51;;;;;;;13.80;9.10;;;13.20;99.90;;;;;;5099397;28;20527;-82
2022/09/25 00:24:21;;;;;;;13.33;9.30;;;13.20;99.90;;;;;;5099553;28;20535;-81
2022/09/25 00:26:50;;;;;;;10.70;8.10;;;13.20;99.90;;;;;;5098861;28;20472;-81
2022/09/25 00:29:20;;;;;;;13.50;9.20;;;13.20;99.90;;;;;;5099011;28;20555;-82
2022/09/25 00:31:48;;;;;;;15.00;8.83;;;13.20;99.90;;;;;;5099004;28;21010;-82
2022/09/25 00:34:16;;;;;;;9.57;8.53;;;13.20;99.90;;;;;;5099025;28;20452;-82
2022/09/25 00:36:44;;;;;;;15.07;8.17;;;13.20;99.90;;;;;;5100032;28;20475;-81
2022/09/25 00:39:13;;;;;;;8.97;7.57;;;13.20;99.90;;;;;;5100851;28;20433;-81
2022/09/25 00:41:41;;;;;;;14.83;8.80;;;13.20;99.90;;;;;;5100775;28;20499;-81
2022/09/25 00:44:43;;;;;;;14.97;7.67;;;13.20;99.90;;;;;;5098769;28;20467;-82
2022/09/25 00:47:15;;;;;;;13.00;8.07;;;13.20;99.90;;;;;;5099007;28;20470;-81
2022/09/25 00:49:44;;;;;;;10.50;6.70;;;13.20;99.90;;;;;;5098857;28;20440;-82
2022/09/25 00:52:13;;;;;;;9.43;6.60;;;13.20;99.90;;;;;;5099029;28;20476;-82
2022/09/25 00:54:46;;;;;;;11.33;7.10;;;13.20;99.90;;;;;;5098455;28;20456;-82
2022/09/25 00:57:18;;;;;;;10.53;6.73;;;13.20;99.90;;;;;;5099637;28;20462;-82
2022/09/25 00:59:50;;;;;;;11.47;6.83;;;13.20;99.90;;;;;;5098230;28;20445;-81
2022/09/25 01:02:24;;;;;;;11.77;7.17;;;13.20;99.90;;;;;;5098943;28;20563;-82
2022/09/25 01:04:54;;;;;;;9.70;6.23;;;13.20;99.90;;;;;;5098278;28;20444;-82
2022/09/25 01:07:22;;;;;;;9.90;5.97;;;13.20;99.90;;;;;;5098702;28;20843;-82
2022/09/25 01:09:51;;;;;;;9.77;5.97;;;13.20;99.90;;;;;;5098621;28;20822;-82
2022/09/25 01:12:19;;;;;;;12.47;6.00;;;13.10;99.90;;;;;;5101256;28;20993;-83
2022/09/25 01:14:47;;;;;;;13.17;6.50;;;13.20;99.90;;;;;;5104902;28;20440;-83
2022/09/25 01:17:22;;;;;;;9.77;5.97;;;13.10;99.90;;;;;;5102530;28;20452;-83
2022/09/25 01:20:04;;;;;;;9.43;4.87;;;13.10;99.90;;;;;;5102637;28;20436;-83
2022/09/25 01:22:46;;;;;;;10.17;4.67;;;13.10;99.90;;;;;;5102576;28;20468;-82
2022/09/25 01:25:25;;;;;;;9.00;5.77;;;13.10;99.90;;;;;;5101796;28;20443;-82
2022/09/25 01:28:15;;;;;;;11.03;5.20;;;13.10;99.90;;;;;;5100622;28;20456;-83
2022/09/25 01:30:48;;;;;;;12.23;5.40;;;13.10;99.90;;;;;;5074447;23;20494;-83
2022/09/25 01:33:22;;;;;;;12.13;5.70;;;13.10;99.90;;;;;;5040197;28;20500;-82
2022/09/25 01:35:58;;;;;;;9.60;4.40;;;13.10;99.90;;;;;;5039836;28;20452;-82
2022/09/25 01:38:33;;;;;;;11.17;5.27;;;13.20;99.90;;;;;;5039436;28;20448;-82
2022/09/25 01:41:07;;;;;;;13.10;5.30;;;13.10;99.90;;;;;;5039495;28;20928;-82
2022/09/25 01:43:38;;;;;;;11.43;4.80;;;13.10;99.90;;;;;;5039347;28;20462;-82
2022/09/25 01:46:15;;;;;;;16.37;4.33;;;13.10;99.90;;;;;;5038811;28;20467;-82
2022/09/25 01:48:47;;;;;;;9.97;4.53;;;13.10;99.90;;;;;;5039332;28;21186;-82
2022/09/25 01:51:18;;;;;;;10.33;4.67;;;13.10;99.90;;;;;;5040978;28;20423;-82
2022/09/25 01:53:51;;;;;;;9.10;4.27;;;13.10;99.90;;;;;;5040418;28;20467;-81
2022/09/25 01:56:31;;;;;;;11.30;4.60;;;13.10;99.90;;;;;;5038608;28;20866;-82
2022/09/25 01:59:04;;;;;;;11.00;4.80;;;13.20;99.90;;;;;;5038983;28;20815;-82
2022/09/25 02:01:39;;;;;;;11.60;4.70;;;13.10;99.90;;;;;;5040891;28;20443;-80
2022/09/25 02:04:12;;;;;;;10.10;5.00;;;13.10;99.90;;;;;;5039547;28;20557;-81
2022/09/25 02:06:44;;;;;;;8.00;4.70;;;13.10;99.90;;;;;;5038987;28;20558;-81
2022/09/25 02:09:18;;;;;;;8.47;3.83;;;13.10;99.90;;;;;;5038603;28;20999;-81
2022/09/25 02:11:51;;;;;;;11.13;3.97;;;13.10;99.90;;;;;;5042069;28;20513;-81
2022/09/25 02:14:23;;;;;;;9.90;4.40;;;13.10;99.90;;;;;;5042360;28;20610;-81
2022/09/25 02:16:56;;;;;;;8.90;4.20;;;13.10;99.90;;;;;;5041011;28;20825;-80
2022/09/25 02:22:18;;;;;;;7.97;4.43;;;13.10;99.90;;;;;;5040131;28;20561;-82
2022/09/25 02:24:53;;;;;;;9.80;3.90;;;13.10;99.90;;;;;;5039862;28;20437;-81
2022/09/25 02:27:28;;;;;;;8.40;3.83;;;13.10;99.90;;;;;;5038465;28;20471;-80
2022/09/25 02:29:57;;;;;;;8.80;4.67;;;13.10;99.90;;;;;;5041053;28;20442;-80
2022/09/25 02:32:30;;;;;;;10.33;4.10;;;13.10;99.90;;;;;;5040060;28;20470;-79
2022/09/25 02:34:59;;;;;;;9.53;3.80;;;13.10;99.90;;;;;;5040908;28;20453;-81
2022/09/25 02:37:28;;;;;;;10.30;3.77;;;13.10;99.90;;;;;;5040840;28;20501;-80
2022/09/25 02:40:00;;;;;;;10.97;3.70;;;13.10;99.90;;;;;;5039947;28;20944;-82
2022/09/25 02:42:38;;;;;;;10.70;4.00;;;13.10;99.90;;;;;;5041126;28;20478;-83
2022/09/25 02:45:27;;;;;;;11.07;4.47;;;13.10;99.90;;;;;;5040043;28;20482;-80
2022/09/25 02:48:06;;;;;;;8.90;4.40;;;13.10;99.90;;;;;;5043081;28;20485;-81
2022/09/25 02:50:42;;;;;;;11.40;3.60;;;13.10;99.90;;;;;;5040366;28;20446;-81
2022/09/25 02:53:18;;;;;;;7.00;3.97;;;13.00;99.90;;;;;;5041727;28;20490;-80
2022/09/25 02:55:52;;;;;;;8.33;4.10;;;13.00;99.90;;;;;;5039967;28;20529;-83
2022/09/25 02:58:27;;;;;;;7.03;4.07;;;13.00;99.90;;;;;;5040444;28;20439;-82
2022/09/25 03:00:57;;;;;;;8.60;3.57;;;13.00;99.90;;;;;;5040206;28;20427;-83
2022/09/25 03:03:28;;;;;;;9.93;3.93;;;13.00;99.90;;;;;;5042703;28;20517;-81
2022/09/25 03:05:57;;;;;;;8.83;4.17;;;13.00;99.90;;;;;;5043526;28;20955;-82
2022/09/25 03:08:40;;;;;;;12.53;3.87;;;13.00;99.90;;;;;;5040660;28;20553;-81
2022/09/25 03:11:09;;;;;;;11.93;3.97;;;13.00;99.90;;;;;;5041134;28;20515;-82
2022/09/25 03:13:38;;;;;;;11.03;3.73;;;13.00;99.90;;;;;;5040879;28;20482;-81
2022/09/25 03:16:12;;;;;;;9.03;2.70;;;13.00;99.90;;;;;;5042253;28;20438;-81
2022/09/25 03:18:42;;;;;;;8.17;3.93;;;13.00;99.90;;;;;;5040723;28;20446;-83
2022/09/25 03:21:10;;;;;;;9.33;4.17;;;13.00;99.90;;;;;;5039552;28;20458;-81
2022/09/25 03:23:39;;;;;;;9.77;4.10;;;13.00;99.90;;;;;;5037911;28;20509;-81
2022/09/25 03:26:07;;;;;;;12.30;3.53;;;13.00;99.90;;;;;;5039945;28;20442;-81
2022/09/25 03:28:35;;;;;;;12.87;3.97;;;13.00;99.90;;;;;;5038872;28;20474;-82
2022/09/25 03:31:05;;;;;;;7.33;3.53;;;13.00;99.90;;;;;;5056436;28;20462;-81
2022/09/25 03:33:35;;;;;;;11.63;4.00;;;12.90;99.90;;;;;;5041212;28;20466;-82
2022/09/25 03:36:11;;;;;;;8.17;4.17;;;12.90;99.90;;;;;;5049634;28;20450;-83
2022/09/25 03:38:41;;;;;;;9.47;3.90;;;12.90;99.90;;;;;;5044959;28;20466;-83
2022/09/25 03:41:10;;;;;;;10.27;3.60;;;12.90;99.90;;;;;;5044814;28;20451;-82
2022/09/25 03:43:40;;;;;;;9.90;3.53;;;12.90;99.90;;;;;;5060239;28;20481;-82
2022/09/25 03:46:10;;;;;;;11.53;4.60;;;12.90;99.90;;;;;;5044252;28;20852;-82
2022/09/25 03:48:40;;;;;;;10.37;4.43;;;12.80;99.90;;;;;;5043086;28;20474;-82
2022/09/25 03:51:10;;;;;;;8.53;4.00;;;12.80;99.90;;;;;;5043623;28;20475;-82
2022/09/25 03:53:38;;;;;;;9.63;4.00;;;12.80;99.90;;;;;;5043138;28;20479;-82
2022/09/25 03:56:09;;;;;;;12.73;4.20;;;12.80;99.90;;;;;;5042153;28;20447;-82
2022/09/25 03:58:37;;;;;;;8.43;3.70;;;12.80;99.90;;;;;;5042484;28;20482;-81
2022/09/25 04:01:06;;;;;;;8.47;3.60;;;12.80;99.90;;;;;;5041326;28;20457;-82
2022/09/25 04:03:35;;;;;;;9.70;4.27;;;12.80;99.90;;;;;;5041845;28;20933;-82
2022/09/25 04:06:05;;;;;;;8.43;3.77;;;12.80;99.90;;;;;;5043079;28;20518;-81
2022/09/25 04:08:36;;;;;;;9.67;3.70;;;12.80;99.90;;;;;;5041492;28;20471;-82
2022/09/25 04:11:05;;;;;;;7.53;4.10;;;12.70;99.90;;;;;;5042758;28;20436;-81
2022/09/25 04:13:36;;;;;;;7.53;4.07;;;12.70;99.90;;;;;;5043157;28;20475;-81
2022/09/25 04:16:06;;;;;;;10.07;4.57;;;12.70;99.90;;;;;;5040543;28;20431;-81
2022/09/25 04:18:35;;;;;;;7.10;4.03;;;12.70;99.90;;;;;;5040716;28;20466;-80
2022/09/25 04:21:06;;;;;;;7.67;3.80;;;12.70;99.90;;;;;;5040877;28;20856;-81
2022/09/25 04:23:36;;;;;;;9.23;3.60;;;12.60;99.90;;;;;;5039647;28;20479;-80
2022/09/25 04:26:05;;;;;;;12.07;4.13;;;12.60;99.90;;;;;;5039712;28;20470;-80
2022/09/25 04:28:33;;;;;;;5.47;3.23;;;12.60;99.90;;;;;;5038982;28;20992;-81
2022/09/25 04:31:02;;;;;;;10.30;3.93;;;12.60;99.90;;;;;;5040020;28;20549;-82
2022/09/25 04:33:45;;;;;;;6.83;4.03;;;12.60;99.90;;;;;;5039421;28;20493;-82
2022/09/25 04:36:13;;;;;;;9.43;4.43;;;12.60;99.90;;;;;;5029359;28;20865;-80
2022/09/25 04:38:43;;;;;;;7.53;4.13;;;12.60;99.90;;;;;;5039507;28;20451;-83
2022/09/25 04:41:12;;;;;;;8.30;3.50;;;12.50;99.90;;;;;;5041129;28;20789;-82
2022/09/25 04:43:41;;;;;;;7.93;4.00;;;12.50;99.90;;;;;;5039339;28;20474;-81
2022/09/25 04:46:11;;;;;;;9.30;3.67;;;12.50;99.90;;;;;;5040513;28;20485;-81
2022/09/25 04:48:47;;;;;;;9.00;4.00;;;12.50;99.90;;;;;;5042586;28;20463;-80
2022/09/25 04:51:15;;;;;;;10.10;4.00;;;12.40;99.90;;;;;;5041941;28;20458;-83
2022/09/25 04:53:44;;;;;;;5.67;3.67;;;12.40;99.90;;;;;;5040834;28;20467;-81
2022/09/25 04:56:13;;;;;;;9.23;4.40;;;12.40;99.90;;;;;;5040474;28;20830;-80
2022/09/25 04:58:46;;;;;;;11.33;4.50;;;12.40;99.90;;;;;;5040610;28;20453;-80
2022/09/25 05:01:15;;;;;;;9.03;4.60;;;12.40;99.90;;;;;;5039888;28;20443;-81
2022/09/25 05:03:43;;;;;;;7.60;4.47;;;12.30;99.90;;;;;;5040643;28;20467;-81
2022/09/25 05:06:11;;;;;;;7.80;4.33;;;12.30;99.90;;;;;;5041484;28;20439;-83
2022/09/25 05:08:39;;;;;;;7.83;3.80;;;12.30;99.90;;;;;;5039814;28;20502;-81
2022/09/25 05:11:10;;;;;;;7.00;4.17;;;12.30;99.90;;;;;;5041206;28;20447;-80
2022/09/25 05:13:38;;;;;;;8.73;4.90;;;12.20;99.90;;;;;;5039783;28;20474;-79
2022/09/25 05:16:07;;;;;;;7.13;4.30;;;12.20;99.90;;;;;;5039877;28;20458;-81
2022/09/25 05:18:35;;;;;;;9.93;4.80;;;12.20;99.90;;;;;;5040771;28;20474;-81
2022/09/25 05:21:04;;;;;;;10.13;5.07;;;12.20;99.90;;;;;;5038970;28;20447;-80
2022/09/25 05:23:33;;;;;;;8.43;3.90;;;12.10;99.90;;;;;;5041870;28;20479;-80
2022/09/25 05:26:01;;;;;;;9.73;4.47;;;12.10;99.90;;;;;;5041863;28;20434;-81
2022/09/25 05:28:32;;;;;;;8.87;4.40;;;12.10;99.90;;;;;;5038927;28;20881;-80
2022/09/25 05:31:02;;;;;;;8.07;4.33;;;12.00;99.90;;;;;;5039761;28;20459;-80
2022/09/25 05:33:31;;;;;;;8.63;4.00;;;12.00;99.90;;;;;;5039326;28;20475;-80
2022/09/25 05:36:01;;;;;;;7.83;4.90;;;12.00;99.90;;;;;;5041348;28;20443;-80
2022/09/25 05:38:32;;;;;;;8.27;4.63;;;12.00;99.90;;;;;;5041297;28;20415;-80
2022/09/25 05:41:03;;;;;;;10.93;5.30;;;11.90;99.90;;;;;;5041572;28;20430;-80
2022/09/25 05:43:34;;;;;;;10.93;3.70;;;11.90;99.90;;;;;;5038718;28;20482;-82
2022/09/25 05:46:02;;;;;;;8.93;4.50;;;11.90;99.90;;;;;;5040873;28;20869;-81
2022/09/25 05:48:30;;;;;;;8.47;4.13;;;11.90;99.90;;;;;;5043893;28;20465;-81
2022/09/25 05:50:59;;;;;;;8.10;4.10;;;11.90;99.90;;;;;;5039564;28;20435;-81
2022/09/25 05:53:29;;;;;;;8.67;4.33;;;11.90;99.90;;;;;;5040924;28;20479;-82
2022/09/25 05:55:59;;;;;;;9.00;4.00;;;11.90;99.90;;;;;;5041409;28;20475;-81
2022/09/25 05:58:29;;;;;;;7.40;4.00;;;11.90;99.90;;;;;;5041324;28;20435;-82
2022/09/25 06:01:02;;;;;;;7.10;4.27;;;11.90;99.90;;;;;;5041568;28;20489;-81
2022/09/25 06:03:30;;;;;;;7.80;4.47;;;11.90;99.90;;;;;;5042804;28;20462;-81
2022/09/25 06:05:59;;;;;;;8.30;3.90;;;11.90;99.90;;;;;;5042430;28;20446;-81
2022/09/25 06:08:29;;;;;;;7.03;4.00;;;11.90;99.90;;;;;;5040815;28;20462;-82
2022/09/25 06:10:59;;;;;;;9.60;4.53;;;11.90;99.90;;;;;;5042338;28;20427;-81
2022/09/25 06:13:28;;;;;;;13.40;4.23;;;11.90;99.90;;;;;;5040820;28;20474;-81
2022/09/25 06:15:56;;;;;;;9.73;4.03;;;11.90;99.90;;;;;;5040922;28;20450;-81
2022/09/25 06:18:26;;;;;;;10.40;3.93;;;12.00;99.90;;;;;;5041207;28;20964;-81
2022/09/25 06:21:00;;;;;;;9.97;4.10;;;12.10;99.90;;;;;;5042646;28;20446;-81
2022/09/25 06:23:28;;;;;;;5.90;4.00;;;12.10;99.90;;;;;;5041411;28;20471;-81
2022/09/25 06:26:01;;;;;;;7.13;4.00;;;12.00;99.90;;;;;;5046597;28;20462;-82
2022/09/25 06:28:30;;;;;;;11.50;4.13;;;12.00;99.90;;;;;;5044167;28;20486;-81
2022/09/25 06:31:00;;;;;;;6.80;3.87;;;12.00;99.90;;;;;;5043899;28;20454;-82
2022/09/25 06:33:31;;;;;;;5.03;3.50;;;12.00;99.90;;;;;;5041527;28;20565;-81
2022/09/25 06:35:59;;;;;;;8.10;4.10;;;12.00;99.90;;;;;;5045731;28;20458;-82
2022/09/25 06:38:32;;;;;;;8.63;3.40;;;12.00;99.90;;;;;;5047401;28;20451;-82
2022/09/25 06:41:00;;;;;;;7.20;4.00;;;12.00;99.90;;;;;;5046988;28;20435;-82
2022/09/25 06:43:30;;;;;;;5.23;4.30;;;12.00;99.90;;;;;;5045510;28;20506;-82
2022/09/25 06:46:02;;;;;;;11.43;4.20;;;12.00;99.90;;;;;;5044347;28;20443;-82
2022/09/25 06:48:32;;;;;;;9.70;3.90;;;12.00;99.90;;;;;;5044660;28;20501;-82
2022/09/25 06:51:01;;;;;;;8.70;4.70;;;12.10;99.90;;;;;;5042944;28;20490;-82
2022/09/25 06:53:29;;;;;;;12.63;5.37;;;12.10;99.90;;;;;;5043760;28;20475;-82
2022/09/25 06:55:59;;;;;;;7.70;4.67;;;12.10;99.90;;;;;;5043279;28;20443;-82
2022/09/25 06:58:29;;;;;;;6.83;3.80;;;12.10;99.90;;;;;;5044769;28;20442;-82
2022/09/25 07:00:57;;;;;;;8.27;4.53;;;12.20;99.90;;;;;;5042822;28;20443;-82
2022/09/25 07:06:14;;;;;;;8.40;4.07;;;12.20;99.90;;;;;;5039378;28;20438;-82
2022/09/25 07:08:43;;;;;;;10.27;4.00;;;12.20;99.90;;;;;;5039228;28;20947;-82
2022/09/25 07:11:13;;;;;;;9.10;4.43;;;12.20;99.90;;;;;;5039686;28;20817;-82
2022/09/25 07:13:41;;;;;;;5.73;3.90;;;12.30;99.90;;;;;;5039657;28;20494;-83
2022/09/25 07:16:13;;;;;;;7.90;4.67;;;12.30;99.90;;;;;;5039468;28;20436;-82
2022/09/25 07:18:42;;;;;;;6.53;4.50;;;12.40;99.90;;;;;;5038872;28;20479;-81
2022/09/25 07:21:14;;;;;;;10.17;5.67;;;12.40;99.90;;;;;;5041176;28;20442;-81
2022/09/25 07:23:42;;;;;;;8.03;4.57;;;12.40;99.90;;;;;;5039813;28;20490;-81
2022/09/25 07:26:13;;;;;;;6.37;4.37;;;12.50;99.90;;;;;;5037654;28;20447;-82
2022/09/25 07:28:42;;;;;;;6.57;4.90;;;12.50;99.90;;;;;;5040092;28;20423;-81
2022/09/25 07:31:13;;;;;;;7.00;4.40;;;12.60;99.90;;;;;;5039413;28;20454;-81
2022/09/25 07:33:42;;;;;;;7.10;4.40;;;12.60;99.90;;;;;;5037969;28;20475;-81
2022/09/25 07:36:12;;;;;;;8.47;4.30;;;12.70;99.90;;;;;;5037799;28;20443;-82
2022/09/25 07:38:41;;;;;;;5.47;4.00;;;12.70;99.90;;;;;;5037164;28;20451;-82
2022/09/25 07:41:11;;;;;;;11.43;4.93;;;12.70;99.90;;;;;;5038314;28;20973;-81
2022/09/25 07:43:42;;;;;;;5.83;4.30;;;12.80;99.90;;;;;;5039406;28;20466;-82
2022/09/25 07:46:10;;;;;;;7.20;5.07;;;12.80;99.90;;;;;;5037660;28;20534;-82
2022/09/25 07:48:39;;;;;;;8.10;4.80;;;12.90;99.90;;;;;;5037374;28;20459;-82
2022/09/25 07:51:08;;;;;;;7.60;5.03;;;13.00;99.90;;;;;;5036618;28;20471;-81
2022/09/25 07:53:38;;;;;;;8.23;4.70;;;13.10;99.90;;;;;;5037761;28;20574;-81
2022/09/25 07:56:06;;;;;;;4.73;4.13;;;13.20;99.90;;;;;;5038024;28;20446;-82
2022/09/25 07:58:35;;;;;;;7.60;4.90;;;13.40;99.90;;;;;;5038091;28;20509;-80
2022/09/25 08:01:06;;;;;;;9.17;4.97;;;13.50;99.90;;;;;;5037709;28;20454;-82
2022/09/25 08:03:34;;;;;;;10.80;4.67;;;13.60;99.90;;;;;;5040258;28;20996;-82
2022/09/25 08:06:04;;;;;;;6.77;4.97;;;13.70;99.90;;;;;;5039618;28;20447;-81
2022/09/25 08:08:34;;;;;;;7.30;3.80;;;13.80;99.90;;;;;;5039284;28;20438;-80
2022/09/25 08:11:06;;;;;;;8.43;4.67;;;13.90;99.90;;;;;;5039260;28;20561;-80
2022/09/25 08:13:36;;;;;;;9.63;4.50;;;14.00;99.90;;;;;;5039395;28;20465;-80
2022/09/25 08:16:05;;;;;;;6.17;3.90;;;14.10;99.90;;;;;;5037851;28;20434;-81
2022/09/25 08:18:33;;;;;;;7.50;3.70;;;14.20;99.90;;;;;;5036439;28;20451;-80
2022/09/25 08:21:02;;;;;;;7.50;4.37;;;14.30;99.90;;;;;;5037706;28;20435;-80
2022/09/25 08:23:33;;;;;;;6.50;3.73;;;14.40;99.90;;;;;;5038082;28;20549;-81
2022/09/25 08:26:01;;;;;;;5.00;3.40;;;14.50;99.90;;;;;;5038386;28;20467;-80
2022/09/25 08:28:31;;;;;;;5.67;3.40;;;14.70;99.90;;;;;;5037162;28;20936;-82
2022/09/25 08:31:03;;;;;;;5.33;2.60;;;14.80;99.90;;;;;;5036540;28;20463;-81
2022/09/25 08:33:33;;;;;;;6.60;2.80;;;14.90;99.90;;;;;;5036664;28;20502;-81
2022/09/25 08:36:03;;;;;;;6.30;2.77;;;15.00;99.90;;;;;;5036045;28;20451;-81
2022/09/25 08:38:35;;;;;;;6.57;2.90;;;15.10;99.90;;;;;;5036561;28;20414;-80
2022/09/25 08:41:07;;;;;;;6.70;2.40;;;15.10;99.90;;;;;;5036399;28;20441;-83
2022/09/25 08:43:43;;;;;;;5.37;2.27;;;15.20;99.90;;;;;;5053627;28;20471;-82
2022/09/25 08:49:09;;;;;;;7.47;2.57;;;15.20;99.90;;;;;;5035689;28;20435;-80
2022/09/25 08:51:42;;;;;;;5.53;2.03;;;15.30;99.90;;;;;;5035023;28;20470;-82
2022/09/25 08:54:15;;;;;;;5.47;2.60;;;15.40;99.90;;;;;;5035069;28;20467;-81
2022/09/25 08:56:44;;;;;;;5.77;2.40;;;15.40;99.90;;;;;;5036521;28;20526;-79
2022/09/25 08:59:25;;;;;;;7.10;3.77;;;15.40;99.90;;;;;;5035925;28;21003;-80
2022/09/25 09:01:56;;;;;;;5.50;2.60;;;15.50;99.90;;;;;;5051433;28;20413;-80
2022/09/25 09:04:30;;;;;;;5.13;1.83;;;15.50;99.90;;;;;;5035788;28;20434;-83
2022/09/25 09:07:04;;;;;;;8.13;2.93;;;15.50;99.90;;;;;;5037175;28;20447;-81
2022/09/25 09:09:57;;;;;;;4.13;2.00;;;15.50;99.90;;;;;;5038088;28;20449;-81
2022/09/25 09:12:32;;;;;;;5.23;2.37;;;15.50;99.90;;;;;;5042017;28;20213;-81
2022/09/25 09:15:16;;;;;;;7.07;2.60;;;15.70;99.90;;;;;;5042445;28;20501;-82
2022/09/25 09:17:44;;;;;;;4.33;2.13;;;15.80;99.90;;;;;;5043070;28;20435;-81
2022/09/25 09:20:17;;;;;;;3.70;1.87;;;15.90;99.90;;;;;;5043421;28;20413;-82
2022/09/25 09:22:52;;;;;;;4.10;2.00;;;16.00;99.90;;;;;;5064072;28;20442;-81
2022/09/25 09:25:27;;;;;;;3.87;1.90;;;16.10;99.90;;;;;;5047505;28;20442;-81
2022/09/25 09:28:11;;;;;;;5.87;2.23;;;16.20;99.90;;;;;;5046407;28;20465;-82
2022/09/25 09:30:50;;;;;;;5.47;2.10;;;16.20;99.90;;;;;;5046206;28;20457;-80
2022/09/25 09:33:37;;;;;;;6.43;2.00;;;16.20;99.90;;;;;;5046319;28;20460;-80
2022/09/25 09:36:13;;;;;;;4.17;1.70;;;16.30;99.90;;;;;;5046138;28;20439;-78
2022/09/25 09:38:48;;;;;;;5.33;1.90;;;16.30;99.90;;;;;;5047840;28;20400;-79
2022/09/25 09:41:28;;;;;;;3.43;1.70;;;16.30;99.90;;;;;;5044552;28;20437;-80
2022/09/25 09:44:23;;;;;;;3.90;2.13;;;16.20;99.90;;;;;;5042196;28;20458;-79
2022/09/25 09:47:02;;;;;;;3.33;2.00;;;16.10;99.90;;;;;;5041847;28;20959;-79
2022/09/25 09:49:36;;;;;;;3.13;1.53;;;16.00;99.90;;;;;;5042902;28;20837;-79
2022/09/25 09:52:10;;;;;;;4.20;3.80;;;15.90;99.90;;;;;;5040840;28;20466;-81
2022/09/25 09:54:44;;;;;;;4.20;1.80;;;15.80;99.90;;;;;;5040704;28;20443;-78
2022/09/25 09:57:17;;;;;;;4.63;1.70;;;15.70;99.90;;;;;;5041853;28;20476;-78
2022/09/25 09:59:49;;;;;;;4.23;1.63;;;15.70;99.90;;;;;;5040354;28;20413;-78
2022/09/25 10:02:30;;;;;;;14.47;2.20;;;15.60;99.90;;;;;;5041909;28;20483;-79
2022/09/25 10:05:02;;;;;;;4.10;1.57;;;15.50;99.90;;;;;;5040604;28;20442;-79
2022/09/25 10:07:34;;;;;;;3.97;1.60;;;15.50;99.90;;;;;;5041907;28;20526;-80
2022/09/25 10:10:02;;;;;;;4.60;1.50;;;15.50;99.90;;;;;;5042627;28;20416;-79
2022/09/25 10:12:33;;;;;;;6.50;2.33;;;15.50;99.90;;;;;;5039985;28;20884;-78
2022/09/25 10:15:05;;;;;;;4.60;1.87;;;15.50;99.90;;;;;;5041178;28;20454;-78
2022/09/25 10:17:36;;;;;;;4.47;1.90;;;15.50;99.90;;;;;;5040857;28;20458;-77
2022/09/25 10:20:15;;;;;;;6.57;1.87;;;15.60;99.90;;;;;;5040407;28;20418;-79
2022/09/25 10:22:45;;;;;;;4.87;2.77;;;15.70;99.90;;;;;;5040868;28;20478;-81
2022/09/25 10:25:14;;;;;;;3.87;2.20;;;15.70;99.90;;;;;;5040028;28;20963;-79
2022/09/25 10:27:44;;;;;;;3.90;1.90;;;15.80;99.90;;;;;;5042286;28;20432;-81
2022/09/25 10:30:20;;;;;;;8.73;6.43;;;15.90;99.90;;;;;;5042724;28;20984;-81
2022/09/25 10:32:56;;;;;;;5.53;2.70;;;16.00;99.90;;;;;;5039934;28;20455;-81
2022/09/25 10:35:28;;;;;;;4.90;2.30;;;16.00;99.90;;;;;;5040595;28;20849;-80
2022/09/25 10:38:00;;;;;;;9.63;1.90;;;16.10;99.90;;;;;;5040479;28;20443;-79
2022/09/25 10:40:32;;;;;;;5.80;2.13;;;16.00;99.90;;;;;;5039260;28;20776;-79
2022/09/25 10:43:06;;;;;;;4.13;1.50;;;16.10;99.90;;;;;;5039075;28;20496;-79
2022/09/25 10:45:37;;;;;;;4.20;1.80;;;16.10;99.90;;;;;;5055841;28;20520;-80
2022/09/25 10:51:16;;;;;;;6.50;1.70;;;16.00;99.90;;;;;;5038970;28;20473;-81
2022/09/25 10:53:47;;;;;;;6.63;1.60;;;16.00;99.90;;;;;;5038494;28;20462;-82
2022/09/25 10:56:21;;;;;;;5.90;1.80;;;16.00;99.90;;;;;;5038693;28;20943;-82
2022/09/25 10:58:54;;;;;;;8.03;2.03;;;16.00;99.90;;;;;;5038296;28;20450;-80
2022/09/25 11:01:29;;;;;;;6.77;2.63;;;16.00;99.90;;;;;;5039056;28;20485;-80
2022/09/25 11:03:59;;;;;;;7.97;2.40;;;16.00;99.90;;;;;;5038522;28;20530;-79
2022/09/25 11:06:32;;;;;;;6.80;2.10;;;16.00;99.90;;;;;;5038577;28;20923;-81
2022/09/25 11:09:08;;;;;;;6.87;2.60;;;16.00;99.90;;;;;;5040180;28;20970;-79
2022/09/25 11:11:38;;;;;;;8.57;5.80;;;16.00;99.90;;;;;;5039728;28;20442;-81
2022/09/25 11:14:17;;;;;;;7.77;5.90;;;16.00;99.90;;;;;;5039672;28;20493;-80
2022/09/25 11:16:48;;;;;;;8.70;4.60;;;16.00;99.90;;;;;;5044227;28;20937;-80
2022/09/25 11:19:23;;;;;;;5.00;2.73;;;15.90;99.90;;;;;;5044275;28;20789;-80
2022/09/25 11:21:58;;;;;;;6.63;2.90;;;15.90;99.90;;;;;;5042652;28;20796;-81
2022/09/25 11:24:36;;;;;;;5.63;1.97;;;15.90;99.90;;;;;;5040078;28;20410;-81
2022/09/25 11:27:11;;;;;;;6.10;3.67;;;15.90;99.90;;;;;;5040077;28;20483;-80
2022/09/25 11:30:01;;;;;;;7.23;3.50;;;15.80;99.90;;;;;;5039719;28;21025;-81
2022/09/25 11:32:36;;;;;;;4.70;1.73;;;15.80;99.90;;;;;;5038942;28;20521;-81
2022/09/25 11:35:23;;;;;;;6.23;2.20;;;15.80;99.90;;;;;;5038321;28;20434;-82
2022/09/25 11:38:01;;;;;;;8.60;2.77;;;15.80;99.90;;;;;;5040572;28;20410;-80
2022/09/25 11:43:36;;;;;;;6.50;2.80;;;15.80;99.90;;;;;;5054656;28;20478;-79
2022/09/25 11:46:17;;;;;;;6.27;2.37;;;15.70;99.90;;;;;;5038331;28;20434;-80
2022/09/25 11:48:54;;;;;;;6.63;2.90;;;15.70;99.90;;;;;;5039345;28;20432;-79
2022/09/25 11:51:36;;;;;;;4.73;2.10;;;15.70;99.90;;;;;;5039157;28;20797;-79
2022/09/25 11:54:14;;;;;;;9.07;2.73;;;15.70;99.90;;;;;;5037693;28;20475;-81
2022/09/25 11:57:06;;;;;;;4.23;1.90;;;15.80;99.90;;;;;;5054408;28;20471;-80
2022/09/25 11:59:51;;;;;;;5.03;2.03;;;15.80;99.90;;;;;;5040017;28;20546;-81
2022/09/25 12:02:31;;;;;;;3.93;1.60;;;15.80;99.90;;;;;;5038685;28;20471;-82
2022/09/25 12:05:26;;;;;;;4.93;1.97;;;15.80;99.90;;;;;;5038864;28;20438;-81
2022/09/25 12:08:21;;;;;;;5.33;1.77;;;15.90;99.90;;;;;;5037600;28;20426;-81
2022/09/25 12:10:57;;;;;;;7.27;2.00;;;15.90;99.90;;;;;;5037948;28;20417;-82
2022/09/25 12:13:34;;;;;;;6.20;2.17;;;16.00;99.90;;;;;;5039891;28;20554;-82
2022/09/25 12:16:13;;;;;;;5.07;1.50;;;16.00;99.90;;;;;;5054190;28;20448;-81
2022/09/25 12:19:09;;;;;;;4.07;1.97;;;16.00;99.90;;;;;;5037804;28;21027;-80
2022/09/25 12:21:46;;;;;;;3.60;1.63;;;16.00;99.90;;;;;;5037150;28;20443;-80
2022/09/25 12:24:27;;;;;;;3.67;1.60;;;16.10;99.90;;;;;;5037205;28;20466;-82
2022/09/25 12:27:09;;;;;;;4.90;2.30;;;16.10;99.90;;;;;;5037427;28;20469;-81
2022/09/25 12:29:48;;;;;;;8.20;2.13;;;16.20;99.90;;;;;;5036722;28;20519;-82
2022/09/25 12:32:27;;;;;;;7.50;2.63;;;16.20;99.90;;;;;;5037329;28;20511;-81
2022/09/25 12:35:20;;;;;;;7.27;2.03;;;16.30;99.90;;;;;;5037153;28;20834;-81
2022/09/25 12:37:52;;;;;;;6.50;2.10;;;16.30;99.90;;;;;;5036462;28;20443;-80
2022/09/25 12:40:29;;;;;;;4.07;1.47;;;16.30;99.90;;;;;;5035820;28;20435;-80
2022/09/25 12:43:02;;;;;;;5.23;1.90;;;16.30;99.90;;;;;;5036054;28;20463;-81
2022/09/25 12:45:36;;;;;;;4.30;1.40;;;16.20;99.90;;;;;;5035949;28;20964;-80
2022/09/25 12:48:12;;;;;;;5.70;2.37;;;16.20;99.90;;;;;;5035657;28;20450;-81
2022/09/25 12:50:48;;;;;;;5.23;1.40;;;16.10;99.90;;;;;;5035598;28;20421;-80
2022/09/25 12:53:25;;;;;;;5.53;2.83;;;16.00;99.90;;;;;;5036880;28;20491;-82
2022/09/25 12:55:59;;;;;;;5.67;2.37;;;16.00;99.90;;;;;;5039966;28;20439;-82
2022/09/25 12:58:52;;;;;;;5.57;2.77;;;16.00;99.90;;;;;;5038827;28;20447;-81
2022/09/25 13:01:27;;;;;;;7.47;2.80;;;16.00;99.90;;;;;;5038902;28;20756;-81
2022/09/25 13:04:10;;;;;;;8.03;2.70;;;15.90;99.90;;;;;;5039547;28;21003;-82
2022/09/25 13:06:47;;;;;;;4.90;2.40;;;16.00;99.90;;;;;;5039504;28;20505;-81
2022/09/25 13:09:28;;;;;;;8.13;2.60;;;15.90;99.90;;;;;;5039838;28;20447;-80
2022/09/25 13:12:03;;;;;;;5.47;2.40;;;16.00;99.90;;;;;;5040664;28;20497;-81
2022/09/25 13:14:40;;;;;;;4.47;1.40;;;16.00;99.90;;;;;;5037847;28;20434;-81
2022/09/25 13:17:12;;;;;;;6.50;1.70;;;15.90;99.90;;;;;;5037223;28;20443;-81
2022/09/25 13:19:40;;;;;;;5.63;2.20;;;16.00;99.90;;;;;;5039060;28;20442;-82
2022/09/25 13:22:11;;;;;;;5.00;2.67;;;16.10;99.90;;;;;;5038930;28;20501;-82
2022/09/25 13:24:44;;;;;;;5.50;1.73;;;16.10;99.90;;;;;;5041171;28;20408;-82
2022/09/25 13:27:23;;;;;;;6.37;2.10;;;16.20;99.90;;;;;;5039046;28;20447;-81
2022/09/25 13:29:55;;;;;;;4.73;1.80;;;16.30;99.90;;;;;;5039035;28;20931;-82
2022/09/25 13:32:27;;;;;;;6.20;2.00;;;16.40;99.90;;;;;;5040479;28;20549;-80